Time;durP1;ratioP1;P1;durP2;ratioP2;P2;SDS_P1;SDS_P2;PMS_P1;PMS_P2;Temp;Humidity;BMP_temperature;BMP_pressure;BME280_temperature;BME280_humidity;BME280_pressure;Samples;Min_cycle;Max_cycle;Signal;HPM_P1;HPM_P2
2023/09/09 00:00:51;;;;;;;14.60;11.05;;;;;;;19.18;65.40;98979.84;5005218;28;20079;-77
2023/09/09 00:03:17;;;;;;;13.50;10.27;;;;;;;19.14;65.28;98987.78;5006541;28;20109;-76
2023/09/09 00:05:43;;;;;;;12.45;9.57;;;;;;;19.17;65.72;98978.28;5006219;28;20030;-76
2023/09/09 00:08:08;;;;;;;14.60;10.80;;;;;;;18.98;66.08;98982.97;5007528;28;20034;-76
2023/09/09 00:10:35;;;;;;;12.25;9.18;;;;;;;18.99;65.80;98976.44;5008326;28;20022;-77
2023/09/09 00:13:02;;;;;;;17.52;9.50;;;;;;;18.92;65.80;98982.25;5005701;28;20026;-76
2023/09/09 00:15:29;;;;;;;10.57;8.05;;;;;;;18.86;66.07;98978.06;5008455;28;20387;-76
2023/09/09 00:17:55;;;;;;;17.35;9.07;;;;;;;18.85;65.77;98979.13;5023004;28;20037;-76
2023/09/09 00:20:30;;;;;;;11.93;8.13;;;;;;;18.95;65.64;98988.97;4989084;28;20026;-77
2023/09/09 00:22:56;;;;;;;11.70;7.65;;;;;;;19.01;65.78;98982.38;5003877;28;20030;-77
2023/09/09 00:25:22;;;;;;;12.48;7.97;;;;;;;18.89;66.03;98980.16;5005318;28;20406;-76
2023/09/09 00:27:47;;;;;;;14.73;8.27;;;;;;;18.86;66.35;98978.06;5000931;28;20018;-76
2023/09/09 00:30:13;;;;;;;11.77;8.75;;;;;;;18.81;65.89;98974.63;5008968;28;20033;-76
2023/09/09 00:32:38;;;;;;;12.57;7.22;;;;;;;18.73;66.62;98976.13;5027631;28;20081;-77
2023/09/09 00:35:04;;;;;;;9.07;7.72;;;;;;;18.67;66.70;98975.41;5013317;28;20050;-77
2023/09/09 00:37:29;;;;;;;9.50;7.80;;;;;;;18.61;66.66;98968.47;5012875;28;20093;-77
2023/09/09 00:39:55;;;;;;;11.48;8.13;;;;;;;18.60;66.52;98960.69;5007865;28;20107;-76
2023/09/09 00:42:20;;;;;;;11.10;8.32;;;;;;;18.51;67.26;98962.47;5026912;28;20074;-76
2023/09/09 00:44:45;;;;;;;12.65;9.05;;;;;;;18.55;67.00;98972.38;5027586;28;20030;-76
2023/09/09 00:47:11;;;;;;;11.43;9.25;;;;;;;18.47;66.72;98970.38;5013532;28;20030;-76
2023/09/09 00:49:36;;;;;;;13.07;8.48;;;;;;;18.45;67.03;98972.56;5010896;28;20088;-76
2023/09/09 00:52:02;;;;;;;11.13;8.77;;;;;;;18.45;66.89;98977.16;5011977;28;20034;-76
2023/09/09 00:54:27;;;;;;;13.27;9.25;;;;;;;18.45;66.85;98969.06;5009436;28;20041;-76
2023/09/09 00:56:58;;;;;;;11.73;10.52;;;;;;;18.42;66.75;98967.72;5006545;28;20092;-76
2023/09/09 00:59:24;;;;;;;12.05;9.50;;;;;;;18.50;66.93;98963.56;5012710;28;20129;-77
2023/09/09 01:01:49;;;;;;;13.85;9.73;;;;;;;18.47;66.73;98967.66;5016732;28;20113;-76
2023/09/09 01:04:15;;;;;;;13.98;11.10;;;;;;;18.34;67.03;98973.00;5008718;28;20053;-76
2023/09/09 01:06:41;;;;;;;13.98;10.00;;;;;;;18.34;67.28;98963.00;5008166;28;20129;-76
2023/09/09 01:09:08;;;;;;;12.18;9.25;;;;;;;18.34;67.37;98962.19;5006207;28;20026;-76
2023/09/09 01:11:34;;;;;;;15.48;10.05;;;;;;;18.38;66.81;98955.91;5007911;28;20036;-76
2023/09/09 01:13:59;;;;;;;13.93;9.93;;;;;;;18.15;67.44;98956.03;5008355;28;20030;-76
2023/09/09 01:16:26;;;;;;;11.27;9.63;;;;;;;18.37;67.27;98954.28;5006314;28;20060;-76
2023/09/09 01:18:53;;;;;;;11.77;9.20;;;;;;;18.25;67.32;98964.75;5010452;28;20072;-75
2023/09/09 01:21:21;;;;;;;13.70;9.43;;;;;;;18.22;67.05;98954.53;5006147;28;20037;-76
2023/09/09 01:23:47;;;;;;;11.95;8.50;;;;;;;18.24;66.82;98962.38;5004605;28;20030;-76
2023/09/09 01:26:13;;;;;;;11.35;8.80;;;;;;;18.30;66.98;98964.69;5006237;28;20029;-76
2023/09/09 01:28:38;;;;;;;11.10;8.85;;;;;;;18.09;67.39;98949.88;5001039;28;20096;-76
2023/09/09 01:31:03;;;;;;;15.77;8.48;;;;;;;18.14;67.21;98960.63;5011887;28;20037;-76
2023/09/09 01:33:29;;;;;;;9.15;8.13;;;;;;;18.08;67.90;98959.09;5004727;28;20402;-76
2023/09/09 01:35:54;;;;;;;12.82;8.55;;;;;;;18.05;67.58;98951.56;4998294;28;20048;-76
2023/09/09 01:38:19;;;;;;;11.48;8.82;;;;;;;18.10;67.74;98953.41;5007418;28;20042;-76
2023/09/09 01:40:45;;;;;;;9.02;7.63;;;;;;;18.07;67.52;98959.38;5009052;28;20029;-76
2023/09/09 01:43:10;;;;;;;12.25;7.63;;;;;;;18.18;67.65;98967.03;5002839;28;20038;-76
2023/09/09 01:45:35;;;;;;;11.95;8.35;;;;;;;17.97;67.93;98968.47;5017995;28;20050;-76
2023/09/09 01:48:01;;;;;;;9.50;7.63;;;;;;;17.67;68.81;98967.00;5007767;28;20084;-76
2023/09/09 01:50:26;;;;;;;10.93;7.40;;;;;;;17.98;67.81;98959.25;5003854;28;20091;-76
2023/09/09 01:52:52;;;;;;;9.18;7.47;;;;;;;17.94;68.15;98961.75;5022061;28;20037;-76
2023/09/09 01:55:17;;;;;;;7.97;7.18;;;;;;;18.01;67.42;98961.38;5003907;28;20085;-76
2023/09/09 01:57:43;;;;;;;8.50;7.60;;;;;;;17.90;68.00;98962.63;5006627;28;20033;-76
2023/09/09 02:00:09;;;;;;;9.15;6.85;;;;;;;17.83;68.49;98967.56;5005786;28;20029;-76
2023/09/09 02:02:34;;;;;;;10.18;7.53;;;;;;;17.89;68.19;98964.50;5005884;28;20034;-76
2023/09/09 02:05:00;;;;;;;11.90;7.65;;;;;;;18.02;67.52;98968.34;5006316;28;20593;-76
2023/09/09 02:07:25;;;;;;;9.52;7.50;;;;;;;17.82;68.01;98969.47;5008728;28;20393;-78
2023/09/09 02:09:50;;;;;;;13.07;7.90;;;;;;;17.72;68.21;98966.91;5008811;28;20040;-78
2023/09/09 02:12:16;;;;;;;10.38;7.85;;;;;;;17.70;68.42;98963.72;5003730;28;20030;-76
2023/09/09 02:14:41;;;;;;;12.25;7.60;;;;;;;17.72;68.64;98966.13;5006908;28;20029;-76
2023/09/09 02:17:07;;;;;;;15.13;8.30;;;;;;;17.66;68.28;98960.00;5002670;28;20034;-76
2023/09/09 02:19:33;;;;;;;9.25;6.80;;;;;;;17.72;68.47;98958.81;5007980;28;20471;-76
2023/09/09 02:21:58;;;;;;;10.30;7.75;;;;;;;17.78;68.38;98964.94;5004737;28;20449;-75
2023/09/09 02:24:23;;;;;;;11.85;7.82;;;;;;;17.76;68.04;98967.94;5004523;28;20037;-75
2023/09/09 02:26:49;;;;;;;13.35;8.00;;;;;;;17.46;68.78;98967.53;5005061;28;20092;-75
2023/09/09 02:29:14;;;;;;;12.18;7.40;;;;;;;17.64;68.67;98958.69;5000485;28;20504;-77
2023/09/09 02:31:40;;;;;;;9.32;7.20;;;;;;;17.57;68.79;98966.31;5004363;28;20071;-75
2023/09/09 02:34:06;;;;;;;13.20;8.05;;;;;;;17.64;68.25;98962.19;5004710;28;20034;-76
2023/09/09 02:36:31;;;;;;;14.68;7.57;;;;;;;17.62;68.38;98948.19;5008247;28;20113;-75
2023/09/09 02:38:56;;;;;;;11.68;7.82;;;;;;;17.52;68.82;98956.41;5028977;28;20037;-75
2023/09/09 02:41:22;;;;;;;8.70;7.05;;;;;;;17.53;68.25;98944.53;5009607;28;20053;-75
2023/09/09 02:43:47;;;;;;;9.88;6.88;;;;;;;17.59;68.34;98947.94;5007701;28;20092;-76
2023/09/09 02:46:13;;;;;;;14.65;7.28;;;;;;;17.53;68.85;98957.22;5022869;28;20061;-76
2023/09/09 02:48:38;;;;;;;10.02;7.18;;;;;;;17.49;68.36;98956.97;5007494;28;20112;-76
2023/09/09 02:51:03;;;;;;;12.30;7.78;;;;;;;17.42;68.45;98953.81;5006065;28;20592;-76
2023/09/09 02:53:30;;;;;;;16.63;8.05;;;;;;;17.43;68.68;98960.81;5005442;28;20049;-76
2023/09/09 02:55:55;;;;;;;11.85;6.57;;;;;;;17.39;69.15;98954.38;5005995;28;20506;-76
2023/09/09 02:58:20;;;;;;;11.70;7.82;;;;;;;17.28;69.06;98955.59;5006283;28;20042;-76
2023/09/09 03:00:47;;;;;;;13.85;7.93;;;;;;;17.34;68.63;98953.66;5010381;28;20026;-77
2023/09/09 03:03:13;;;;;;;8.05;6.97;;;;;;;17.33;68.46;98952.03;5015233;28;20116;-78
2023/09/09 03:05:38;;;;;;;15.60;8.40;;;;;;;17.18;68.72;98953.03;5014243;28;20093;-77
2023/09/09 03:08:04;;;;;;;15.93;8.00;;;;;;;16.66;70.31;98959.28;5012227;28;20041;-75
2023/09/09 03:10:30;;;;;;;12.30;7.22;;;;;;;16.33;71.59;98963.63;5004435;28;20124;-75
2023/09/09 03:12:57;;;;;;;9.63;6.70;;;;;;;16.81;69.82;98958.31;5002115;28;20034;-75
2023/09/09 03:15:23;;;;;;;12.57;7.28;;;;;;;16.97;69.29;98963.25;5006838;28;20049;-76
2023/09/09 03:17:49;;;;;;;8.18;7.07;;;;;;;16.99;69.65;98952.97;5007689;28;21168;-76
2023/09/09 03:20:14;;;;;;;8.05;6.72;;;;;;;17.06;68.99;98963.41;5002705;28;20132;-74
2023/09/09 03:22:39;;;;;;;8.68;7.30;;;;;;;17.13;68.56;98953.91;5007537;28;20051;-76
2023/09/09 03:25:07;;;;;;;9.02;7.40;;;;;;;17.12;69.06;98954.97;5006860;28;20100;-76
2023/09/09 03:27:32;;;;;;;11.55;7.55;;;;;;;17.04;68.73;98955.63;5004811;28;20041;-76
2023/09/09 03:29:58;;;;;;;11.77;6.40;;;;;;;17.04;68.82;98952.13;5001798;28;20072;-76
2023/09/09 03:32:25;;;;;;;9.15;6.97;;;;;;;17.07;68.99;98954.25;5001709;28;20641;-76
2023/09/09 03:34:51;;;;;;;8.25;6.90;;;;;;;17.20;68.53;98956.25;5004162;28;20040;-75
2023/09/09 03:37:16;;;;;;;10.52;6.55;;;;;;;17.21;68.42;98958.66;5001912;28;20033;-76
2023/09/09 03:39:42;;;;;;;9.55;7.25;;;;;;;17.09;68.57;98960.16;5003533;28;20141;-76
2023/09/09 03:42:07;;;;;;;11.35;6.95;;;;;;;17.07;69.03;98956.94;5003355;28;20037;-76
2023/09/09 03:44:33;;;;;;;8.88;6.97;;;;;;;17.12;68.39;98960.38;5010034;28;20022;-75
2023/09/09 03:46:58;;;;;;;13.73;7.55;;;;;;;17.01;69.27;98953.53;5006624;28;20113;-75
2023/09/09 03:49:23;;;;;;;10.65;7.40;;;;;;;16.95;68.67;98957.34;5005343;28;20164;-76
2023/09/09 03:51:49;;;;;;;11.00;7.20;;;;;;;16.97;68.92;98962.47;5027953;28;20097;-76
2023/09/09 03:54:14;;;;;;;13.45;7.07;;;;;;;17.07;68.95;98970.44;5009892;28;20092;-76
2023/09/09 03:56:39;;;;;;;18.30;7.53;;;;;;;16.99;68.90;98963.78;5008340;28;20049;-75
2023/09/09 03:59:05;;;;;;;11.45;7.38;;;;;;;16.96;69.63;98960.84;5007350;28;20116;-75
2023/09/09 04:01:31;;;;;;;10.98;7.35;;;;;;;16.94;69.25;98968.44;5020260;28;20080;-75
2023/09/09 04:03:56;;;;;;;8.88;7.25;;;;;;;17.03;69.44;98970.22;4994153;28;20041;-75
2023/09/09 04:06:22;;;;;;;9.48;6.82;;;;;;;16.88;69.20;98964.19;5001026;28;20037;-75
2023/09/09 04:08:47;;;;;;;12.20;7.00;;;;;;;17.00;69.61;98970.78;5005835;28;20866;-75
2023/09/09 04:11:12;;;;;;;9.25;8.25;;;;;;;17.06;69.10;98966.94;4977799;28;20038;-74
2023/09/09 04:13:40;;;;;;;9.65;7.65;;;;;;;16.98;69.38;98974.84;4991570;28;20034;-74
2023/09/09 04:16:06;;;;;;;10.05;7.60;;;;;;;16.91;69.69;98977.88;4990012;28;20042;-75
2023/09/09 04:18:31;;;;;;;9.52;6.85;;;;;;;16.88;69.79;98981.19;4990719;28;20046;-74
2023/09/09 04:20:57;;;;;;;9.60;7.05;;;;;;;16.94;69.70;98976.50;4998318;28;20502;-75
2023/09/09 04:23:22;;;;;;;13.20;7.60;;;;;;;16.95;69.51;98980.84;5009555;28;20033;-74
2023/09/09 04:25:47;;;;;;;9.18;7.32;;;;;;;16.88;69.69;98981.19;5012116;28;20543;-74
2023/09/09 04:28:13;;;;;;;12.02;7.10;;;;;;;16.91;69.64;98971.69;5009834;28;20044;-74
2023/09/09 04:30:40;;;;;;;9.68;6.95;;;;;;;16.88;70.18;98972.28;5006339;28;20060;-74
2023/09/09 04:33:07;;;;;;;12.25;6.75;;;;;;;16.95;70.21;98970.06;5007366;28;20387;-75
2023/09/09 04:35:33;;;;;;;9.55;7.43;;;;;;;16.65;69.91;98973.03;5008026;28;20552;-75
2023/09/09 04:37:58;;;;;;;9.55;7.68;;;;;;;16.57;70.42;98979.88;5005936;28;20029;-75
2023/09/09 04:40:24;;;;;;;13.63;8.05;;;;;;;16.59;69.87;98975.00;4994114;28;20071;-75
2023/09/09 04:42:49;;;;;;;11.07;8.10;;;;;;;16.62;69.96;98976.31;4991505;28;20052;-75
2023/09/09 04:45:15;;;;;;;8.15;6.85;;;;;;;16.64;69.82;98977.66;4991592;28;20137;-75
2023/09/09 04:47:40;;;;;;;8.45;6.57;;;;;;;16.65;70.19;98975.72;4990858;28;20037;-74
2023/09/09 04:50:06;;;;;;;10.15;6.95;;;;;;;16.62;69.94;98976.31;4994167;28;20107;-75
2023/09/09 04:52:32;;;;;;;10.13;7.78;;;;;;;16.54;70.30;98979.59;5002524;28;20040;-75
2023/09/09 04:54:57;;;;;;;10.50;7.38;;;;;;;16.57;69.97;98981.75;5004425;28;20042;-75
2023/09/09 04:57:22;;;;;;;17.00;7.95;;;;;;;16.52;70.61;98987.97;5008270;28;20125;-77
2023/09/09 04:59:48;;;;;;;8.82;6.95;;;;;;;16.46;70.57;98989.91;5006417;28;20087;-76
2023/09/09 05:02:14;;;;;;;10.70;7.15;;;;;;;16.63;69.79;98986.00;5008699;28;20026;-76
2023/09/09 05:04:40;;;;;;;8.73;6.85;;;;;;;16.53;70.28;98983.41;5006257;28;20109;-76
2023/09/09 05:07:05;;;;;;;9.52;7.10;;;;;;;16.56;70.22;98983.63;5007137;28;20034;-76
2023/09/09 05:09:31;;;;;;;8.50;6.78;;;;;;;16.58;70.47;98986.06;4994591;28;20049;-75
2023/09/09 05:11:56;;;;;;;8.73;6.85;;;;;;;16.58;69.88;98992.22;5005433;28;20575;-77
2023/09/09 05:14:22;;;;;;;8.70;7.20;;;;;;;16.60;69.86;98989.28;5003802;28;20041;-76
2023/09/09 05:16:47;;;;;;;9.93;7.43;;;;;;;16.55;70.38;98987.44;5005358;28;20486;-75
2023/09/09 05:19:12;;;;;;;8.25;6.90;;;;;;;16.58;69.95;98994.94;5005605;28;20088;-75
2023/09/09 05:21:38;;;;;;;9.95;6.85;;;;;;;16.46;71.02;98999.88;5006223;28;20036;-75
2023/09/09 05:24:03;;;;;;;8.32;7.20;;;;;;;16.45;70.50;98999.06;5018966;28;20066;-75
2023/09/09 05:26:29;;;;;;;8.02;6.82;;;;;;;16.45;70.86;98996.38;5003210;28;20033;-75
2023/09/09 05:28:54;;;;;;;9.27;7.22;;;;;;;16.49;71.01;98999.28;5005475;28;20037;-75
2023/09/09 05:31:19;;;;;;;8.55;7.53;;;;;;;16.56;70.41;98999.00;5006048;28;20034;-75
2023/09/09 05:33:45;;;;;;;10.55;7.20;;;;;;;16.42;70.58;98999.59;5008789;28;20099;-75
2023/09/09 05:36:10;;;;;;;11.65;7.97;;;;;;;15.93;72.52;98998.91;5004486;28;20163;-75
2023/09/09 05:38:36;;;;;;;11.32;7.30;;;;;;;16.19;71.83;98991.47;5008635;28;20034;-76
2023/09/09 05:41:02;;;;;;;8.55;7.13;;;;;;;16.29;71.87;99000.25;5023128;28;20899;-75
2023/09/09 05:43:28;;;;;;;7.55;6.57;;;;;;;16.42;71.89;98982.66;5005171;28;20037;-75
2023/09/09 05:45:56;;;;;;;7.60;5.97;;;;;;;16.39;71.74;98994.81;5004286;28;20060;-75
2023/09/09 05:48:21;;;;;;;9.40;7.22;;;;;;;16.39;71.46;98991.31;5002488;28;20084;-75
2023/09/09 05:50:47;;;;;;;8.20;7.18;;;;;;;16.45;71.56;98992.84;5005889;28;20049;-75
2023/09/09 05:53:12;;;;;;;8.05;7.22;;;;;;;16.57;71.21;98993.34;5007056;28;20021;-75
2023/09/09 05:55:38;;;;;;;10.10;7.50;;;;;;;16.59;71.22;98998.44;5004488;28;20037;-75
2023/09/09 05:58:04;;;;;;;9.10;6.97;;;;;;;16.66;70.85;98988.13;5007274;28;20026;-75
2023/09/09 06:00:29;;;;;;;9.20;7.47;;;;;;;16.27;71.49;99007.03;5006870;28;20155;-75
2023/09/09 06:02:54;;;;;;;11.02;8.93;;;;;;;16.08;72.55;99001.50;5005488;28;20062;-75
2023/09/09 06:05:20;;;;;;;12.38;8.63;;;;;;;15.80;76.33;98999.53;5006001;28;20065;-74
2023/09/09 06:07:46;;;;;;;15.30;10.15;;;;;;;15.60;78.83;99003.16;5006122;28;20033;-76
2023/09/09 06:10:11;;;;;;;15.55;9.98;;;;;;;15.43;79.46;99001.84;5007152;28;20061;-75
2023/09/09 06:12:37;;;;;;;13.98;10.23;;;;;;;15.39;81.34;98998.91;5002044;28;20026;-75
2023/09/09 06:15:03;;;;;;;10.65;9.45;;;;;;;15.32;79.99;99003.78;5006408;28;20208;-75
2023/09/09 06:17:28;;;;;;;7.53;6.70;;;;;;;15.60;77.06;98997.75;5001850;28;20034;-75
2023/09/09 06:19:54;;;;;;;11.30;10.10;;;;;;;15.41;78.33;99007.50;5004288;28;20038;-76
2023/09/09 06:22:19;;;;;;;11.57;9.18;;;;;;;15.57;77.92;99003.69;5005084;28;20029;-76
2023/09/09 06:24:44;;;;;;;8.73;7.80;;;;;;;16.10;74.74;99007.41;5001979;28;20124;-75
2023/09/09 06:27:10;;;;;;;10.82;6.90;;;;;;;16.29;74.73;99007.56;5002931;28;20061;-75
2023/09/09 06:29:35;;;;;;;9.25;7.32;;;;;;;16.42;74.03;99010.38;5009423;28;20513;-75
2023/09/09 06:32:03;;;;;;;8.68;6.95;;;;;;;16.78;72.49;99004.72;5006320;28;20053;-75
2023/09/09 06:34:28;;;;;;;6.88;6.18;;;;;;;16.72;72.89;99011.25;5004382;28;20080;-75
2023/09/09 06:36:54;;;;;;;9.30;7.78;;;;;;;16.76;74.27;99010.41;5007469;28;20450;-74
2023/09/09 06:39:19;;;;;;;10.45;8.65;;;;;;;16.48;77.79;99006.59;5002419;28;20034;-74
2023/09/09 06:41:44;;;;;;;10.75;8.30;;;;;;;16.54;75.58;99011.94;5001412;28;20034;-74
2023/09/09 06:44:09;;;;;;;11.32;9.88;;;;;;;16.64;78.10;99017.25;4991042;28;20029;-74
2023/09/09 06:46:35;;;;;;;11.55;9.52;;;;;;;16.62;80.83;99016.75;5007301;28;20038;-74
2023/09/09 06:49:00;;;;;;;15.57;9.13;;;;;;;16.32;84.62;99023.13;5003660;28;20096;-74
2023/09/09 06:51:25;;;;;;;15.23;9.70;;;;;;;16.44;82.14;99021.72;5002236;28;20042;-75
2023/09/09 06:53:51;;;;;;;11.52;9.15;;;;;;;16.41;80.93;99022.25;5006612;28;20032;-74
2023/09/09 06:56:16;;;;;;;15.50;10.40;;;;;;;16.22;85.90;99021.34;5007014;28;20041;-75
2023/09/09 06:58:41;;;;;;;16.17;10.23;;;;;;;16.11;86.36;99025.19;5005301;28;20121;-74
2023/09/09 07:01:07;;;;;;;17.65;12.48;;;;;;;16.10;86.74;99020.06;5007682;28;20068;-77
2023/09/09 07:03:32;;;;;;;9.07;8.13;;;;;;;16.31;79.73;99022.34;5002379;28;20156;-76
2023/09/09 07:06:00;;;;;;;11.57;8.32;;;;;;;16.65;77.39;99016.16;5004197;28;20034;-76
2023/09/09 07:08:25;;;;;;;15.77;12.02;;;;;;;16.45;84.18;99025.19;5004436;28;20511;-76
2023/09/09 07:10:51;;;;;;;12.68;9.98;;;;;;;16.27;84.02;99018.59;5012145;28;20037;-76
2023/09/09 07:13:17;;;;;;;9.32;7.72;;;;;;;16.78;77.62;99023.59;5000568;28;20041;-76
2023/09/09 07:15:43;;;;;;;17.83;11.63;;;;;;;16.96;79.09;99018.28;5001337;28;20029;-76
2023/09/09 07:18:08;;;;;;;13.35;11.05;;;;;;;16.85;80.39;99015.97;4995797;28;20123;-76
2023/09/09 07:20:34;;;;;;;16.17;11.25;;;;;;;16.91;79.48;99020.22;5002777;28;20678;-75
2023/09/09 07:22:59;;;;;;;8.52;7.70;;;;;;;17.42;74.60;99020.47;5004015;28;20034;-75
2023/09/09 07:25:24;;;;;;;7.85;6.57;;;;;;;17.54;73.84;99018.22;5002955;28;20042;-74
2023/09/09 07:27:50;;;;;;;10.35;9.07;;;;;;;17.69;74.98;99023.41;5003083;28;20494;-75
2023/09/09 07:30:15;;;;;;;13.05;10.93;;;;;;;17.14;81.77;99020.25;5003636;28;20106;-75
2023/09/09 07:32:41;;;;;;;10.65;9.30;;;;;;;17.03;82.10;99013.38;5002182;28;21886;-76
2023/09/09 07:35:07;;;;;;;14.27;11.43;;;;;;;16.96;84.09;99015.59;5002053;28;20058;-76
2023/09/09 07:37:33;;;;;;;11.02;8.90;;;;;;;17.27;77.37;99007.16;4991264;28;20109;-75
2023/09/09 07:40:18;;;;;;;10.18;7.78;;;;;;;17.73;74.05;99013.63;4996086;28;20034;-76
2023/09/09 07:42:44;;;;;;;9.25;7.95;;;;;;;17.80;74.86;99020.25;5012365;28;20053;-77
2023/09/09 07:45:09;;;;;;;11.55;8.73;;;;;;;17.58;76.65;99020.00;4996685;28;20495;-76
2023/09/09 07:47:35;;;;;;;13.65;11.60;;;;;;;17.38;81.89;99014.84;5025858;23;20049;-83
2023/09/09 07:50:00;;;;;;;11.70;9.07;;;;;;;17.24;83.47;99016.63;4973707;28;20064;-83
2023/09/09 07:52:26;;;;;;;8.23;7.53;;;;;;;17.68;75.44;99009.09;5004977;28;20469;-84
2023/09/09 07:54:52;;;;;;;8.80;7.88;;;;;;;17.85;75.12;99014.00;5011716;28;20034;-83
2023/09/09 07:57:17;;;;;;;10.27;7.15;;;;;;;17.96;74.60;99010.88;5003732;28;20033;-83
2023/09/09 07:59:43;;;;;;;8.18;7.38;;;;;;;17.85;76.46;99022.91;5004667;28;20038;-83
2023/09/09 08:02:08;;;;;;;9.07;7.43;;;;;;;18.18;74.48;99010.25;5015176;28;20040;-83
2023/09/09 08:04:34;;;;;;;10.13;8.57;;;;;;;18.00;79.98;99021.88;5000147;28;21199;-83
2023/09/09 08:06:59;;;;;;;9.52;8.43;;;;;;;17.90;80.51;99014.75;5004371;28;20037;-83
2023/09/09 08:09:26;;;;;;;12.90;9.60;;;;;;;18.12;79.46;99024.13;5004068;28;20037;-83
2023/09/09 08:11:51;;;;;;;8.82;7.65;;;;;;;18.40;74.20;99017.75;5004629;28;22414;-84
2023/09/09 08:14:18;;;;;;;10.93;8.98;;;;;;;18.13;78.89;99029.25;5001178;28;20035;-84
2023/09/09 08:16:43;;;;;;;8.80;7.28;;;;;;;18.22;75.51;99030.19;5004397;28;20033;-83
2023/09/09 08:19:09;;;;;;;13.90;8.82;;;;;;;18.36;75.60;99035.66;5002393;28;20048;-84
2023/09/09 08:21:34;;;;;;;11.10;7.60;;;;;;;18.46;74.81;99022.00;5004814;28;20045;-84
2023/09/09 08:24:00;;;;;;;8.13;7.32;;;;;;;18.50;75.60;99029.22;5003261;28;20034;-84
2023/09/09 08:26:27;;;;;;;11.25;7.78;;;;;;;18.39;76.50;99003.44;5002881;28;20082;-84
2023/09/09 08:28:53;;;;;;;9.30;7.45;;;;;;;18.63;74.66;99022.28;5007602;28;20083;-84
2023/09/09 08:31:18;;;;;;;9.82;7.72;;;;;;;18.74;75.00;99025.63;4986741;28;20520;-85
2023/09/09 08:33:43;;;;;;;8.70;7.80;;;;;;;18.92;74.49;99035.53;4986352;28;20517;-84
2023/09/09 08:36:09;;;;;;;10.00;7.82;;;;;;;18.87;76.16;99025.63;5007099;28;22570;-84
2023/09/09 08:38:34;;;;;;;9.50;8.50;;;;;;;18.97;76.64;99030.88;5007954;28;20560;-84
2023/09/09 08:41:03;;;;;;;12.27;8.25;;;;;;;18.81;78.72;99024.13;4977250;28;20065;-84
2023/09/09 08:43:53;;;;;;;7.80;6.97;;;;;;;19.08;74.08;99034.19;5003981;28;20022;-84
2023/09/09 08:46:21;;;;;;;8.32;7.15;;;;;;;19.29;72.93;99038.91;5001651;28;20022;-84
2023/09/09 08:48:50;;;;;;;8.57;7.68;;;;;;;19.39;72.94;99033.34;4984936;28;20029;-84
2023/09/09 08:51:40;;;;;;;9.93;8.07;;;;;;;19.40;75.88;99029.50;5006059;28;20018;-84
2023/09/09 08:54:08;;;;;;;11.20;8.27;;;;;;;19.31;78.56;99023.16;5007782;28;20037;-84
2023/09/09 08:56:39;;;;;;;9.77;8.63;;;;;;;19.33;78.64;99031.78;4993030;28;20120;-84
2023/09/09 08:59:05;;;;;;;15.57;8.70;;;;;;;19.39;77.45;99021.72;5002758;28;20025;-84
2023/09/09 09:01:31;;;;;;;12.40;8.70;;;;;;;19.36;78.02;99025.00;5003011;28;20053;-84
2023/09/09 09:03:58;;;;;;;9.68;8.20;;;;;;;19.38;77.74;99020.09;4971798;28;20152;-84
2023/09/09 09:06:24;;;;;;;10.00;8.93;;;;;;;19.54;78.24;99023.28;4995971;28;20029;-84
2023/09/09 09:08:49;;;;;;;9.52;8.60;;;;;;;19.65;79.08;99030.91;5004439;28;20034;-84
2023/09/09 09:11:18;;;;;;;12.77;7.80;;;;;;;19.69;77.94;99028.38;4998714;28;20046;-83
2023/09/09 09:13:44;;;;;;;11.98;8.95;;;;;;;19.74;77.28;99003.91;4992799;28;20037;-83
2023/09/09 09:16:09;;;;;;;9.63;8.70;;;;;;;19.88;77.94;99021.72;5000491;28;20110;-82
2023/09/09 09:18:36;;;;;;;8.88;7.97;;;;;;;20.05;77.29;99010.25;5002028;28;20482;-82
2023/09/09 09:21:09;;;;;;;9.65;8.20;;;;;;;20.18;76.25;99015.63;4973513;28;20030;-82
2023/09/09 09:23:45;;;;;;;9.30;8.40;;;;;;;20.25;74.42;99017.94;4997520;28;20044;-82
2023/09/09 09:26:27;;;;;;;10.32;8.75;;;;;;;20.34;75.32;99021.50;4997665;28;20038;-82
2023/09/09 09:28:52;;;;;;;8.02;7.28;;;;;;;20.63;72.86;99021.88;5000456;28;20092;-82
2023/09/09 09:31:22;;;;;;;9.45;7.53;;;;;;;20.61;73.62;99015.16;4981886;28;20048;-82
2023/09/09 09:33:50;;;;;;;9.52;8.48;;;;;;;20.60;72.82;99030.63;5006966;28;20022;-82
2023/09/09 09:36:17;;;;;;;9.50;8.52;;;;;;;20.63;74.01;99004.81;5018487;28;20029;-83
2023/09/09 09:38:43;;;;;;;9.50;8.23;;;;;;;20.82;74.84;99024.38;5008105;28;20567;-83
2023/09/09 09:41:09;;;;;;;9.27;7.47;;;;;;;20.83;73.23;98999.66;5000419;28;20059;-83
2023/09/09 09:43:35;;;;;;;14.43;7.65;;;;;;;20.91;73.09;99012.47;5004293;28;20057;-83
2023/09/09 09:46:14;;;;;;;7.55;6.25;;;;;;;21.19;71.83;99006.84;4984829;28;20137;-83
2023/09/09 09:48:40;;;;;;;7.93;6.93;;;;;;;21.33;71.98;99013.00;4995215;28;20038;-82
2023/09/09 09:51:05;;;;;;;11.57;7.00;;;;;;;21.36;72.32;99009.66;5004584;28;20030;-83
2023/09/09 09:53:32;;;;;;;11.23;7.90;;;;;;;21.37;70.40;99001.19;5002302;28;20033;-84
2023/09/09 09:55:58;;;;;;;7.63;6.88;;;;;;;21.57;70.66;99007.97;4999476;28;20029;-83
2023/09/09 09:58:26;;;;;;;8.23;7.40;;;;;;;21.63;70.38;98998.53;5015057;28;20029;-82
2023/09/09 10:00:53;;;;;;;9.65;7.22;;;;;;;21.65;70.50;98990.88;4999894;28;20061;-82
2023/09/09 10:03:23;;;;;;;7.55;6.85;;;;;;;21.78;69.55;98991.84;5003427;28;20046;-82
2023/09/09 10:05:52;;;;;;;11.35;7.85;;;;;;;21.92;68.96;98993.34;4987229;28;20052;-82
2023/09/09 10:08:27;;;;;;;10.63;7.07;;;;;;;22.06;69.08;98993.97;5000931;28;20025;-83
2023/09/09 10:11:10;;;;;;;10.77;7.40;;;;;;;22.11;68.37;98993.81;5001134;28;20033;-82
2023/09/09 10:13:42;;;;;;;10.65;7.18;;;;;;;22.35;68.25;98996.84;4998646;28;20026;-82
2023/09/09 10:16:09;;;;;;;8.18;6.88;;;;;;;22.55;67.32;98997.28;5004856;28;20033;-83
2023/09/09 10:18:37;;;;;;;8.50;6.75;;;;;;;22.69;66.95;98997.94;4991290;28;20029;-83
2023/09/09 10:21:05;;;;;;;9.10;6.15;;;;;;;22.73;66.22;98988.00;5016313;28;20049;-83
2023/09/09 10:23:31;;;;;;;7.28;6.57;;;;;;;22.85;66.03;98996.28;4990243;28;20049;-82
2023/09/09 10:25:56;;;;;;;8.05;6.65;;;;;;;22.76;64.86;98987.38;5004136;28;20038;-83
2023/09/09 10:28:23;;;;;;;12.13;7.75;;;;;;;22.89;64.93;98978.22;5004446;28;20026;-83
2023/09/09 10:30:48;;;;;;;7.78;6.78;;;;;;;23.02;63.16;98985.38;4989547;28;20033;-82
2023/09/09 10:33:15;;;;;;;11.27;6.93;;;;;;;23.17;60.91;98986.72;5005673;28;20030;-83
2023/09/09 10:35:44;;;;;;;11.38;7.13;;;;;;;23.23;63.78;98983.50;5005867;28;20053;-83
2023/09/09 10:38:11;;;;;;;11.57;7.25;;;;;;;23.75;63.56;98986.75;5004055;28;20041;-83
2023/09/09 10:40:38;;;;;;;12.05;7.25;;;;;;;23.51;60.39;98970.22;5006874;28;20030;-83
2023/09/09 10:43:04;;;;;;;10.07;7.20;;;;;;;23.89;59.81;98979.13;5010499;28;20115;-83
2023/09/09 10:45:41;;;;;;;11.45;6.45;;;;;;;24.25;59.00;98971.13;5004887;28;20316;-83
2023/09/09 10:48:07;;;;;;;11.05;6.25;;;;;;;24.12;57.87;98974.13;5009017;28;20078;-83
2023/09/09 10:50:49;;;;;;;8.63;6.82;;;;;;;24.02;58.51;98967.16;5005691;28;20049;-82
2023/09/09 10:53:31;;;;;;;40.50;13.48;;;;;;;24.99;58.20;98978.41;5006973;28;20025;-83
2023/09/09 10:56:12;;;;;;;7.50;6.60;;;;;;;24.84;58.23;98979.06;5004688;28;20088;-83
2023/09/09 10:58:38;;;;;;;28.42;12.30;;;;;;;25.52;55.13;98963.75;5018965;28;20022;-83
2023/09/09 11:01:07;;;;;;;13.02;8.30;;;;;;;25.70;56.12;98960.44;5009227;28;20040;-84
2023/09/09 11:03:44;;;;;;;8.30;6.97;;;;;;;26.13;54.73;98972.66;5005866;28;20141;-83
2023/09/09 11:06:29;;;;;;;22.98;10.85;;;;;;;26.34;53.47;98965.06;5003301;28;20041;-83
2023/09/09 11:08:56;;;;;;;19.15;10.90;;;;;;;26.24;53.38;98952.66;5001584;28;20674;-84
2023/09/09 11:11:24;;;;;;;16.08;9.02;;;;;;;26.23;53.81;98962.03;5006199;28;20202;-84
2023/09/09 11:13:51;;;;;;;13.93;7.35;;;;;;;26.31;53.39;98960.28;5007956;28;20038;-83
2023/09/09 11:16:33;;;;;;;10.05;7.40;;;;;;;26.41;51.58;98957.00;5008079;28;20520;-83
2023/09/09 11:19:07;;;;;;;12.93;7.22;;;;;;;26.32;50.02;98953.66;5002561;28;20038;-83
2023/09/09 11:21:34;;;;;;;8.20;5.85;;;;;;;26.47;50.77;98937.25;5001590;28;20116;-83
2023/09/09 11:24:03;;;;;;;11.35;7.50;;;;;;;26.72;51.11;98968.03;5002306;28;20033;-84